MUHG/HOG METAR and TAF weather

Enter ICAO airport designator
Station Type Date Time Source
MUHG METAR 2024/06/15 21:50 UTC NOAA

MUHG 152150Z 09010KT 9000 FEW033 31/24 Q1013


Station Type Date Time Source
MUHG Decoded METAR 2024/06/15 21:50 UTC NOAA

Holguin Civ / Mil , Cuba (MUHG) 20-47N 076-19W
Jun 15, 2024 - 05:50 PM EDT / 2024.06.15 2150 UTC
Wind: from the E (090 degrees) at 12 MPH (10 KT):0
Visibility: 5 mile(s):0
Sky conditions: mostly clear
Temperature: 87 F (31 C)
Heat index: 95.7 F (35.4 C):1
Dew Point: 75 F (24 C)
Relative Humidity: 66%
Pressure (altimeter): 29.91 in. Hg (1013 hPa)
ob: MUHG 152150Z 09010KT 9000 FEW033 31/24 Q1013
cycle: 22

Station Type Date Time Source
MUHG TAF 2024/06/15 18:03 UTC NOAA